sensor_id;sensor_type;location;lat;lon;timestamp;P1;durP1;ratioP1;P2;durP2;ratioP2
8480;SDS011;4277;51.354;6.740;2023-06-14T00:01:27;5.82;;;5.22;;
8480;SDS011;4277;51.354;6.740;2023-06-14T00:03:53;9.45;;;5.25;;
8480;SDS011;4277;51.354;6.740;2023-06-14T00:06:20;5.78;;;5.28;;
8480;SDS011;4277;51.354;6.740;2023-06-14T00:08:46;6.13;;;5.40;;
8480;SDS011;4277;51.354;6.740;2023-06-14T00:11:12;6.00;;;5.20;;
8480;SDS011;4277;51.354;6.740;2023-06-14T00:13:37;6.65;;;5.25;;
8480;SDS011;4277;51.354;6.740;2023-06-14T00:16:03;6.63;;;5.25;;
8480;SDS011;4277;51.354;6.740;2023-06-14T00:18:29;5.70;;;5.20;;
8480;SDS011;4277;51.354;6.740;2023-06-14T00:20:55;6.13;;;5.35;;
8480;SDS011;4277;51.354;6.740;2023-06-14T00:23:21;5.85;;;5.05;;
8480;SDS011;4277;51.354;6.740;2023-06-14T00:25:46;6.45;;;5.72;;
8480;SDS011;4277;51.354;6.740;2023-06-14T00:28:12;6.05;;;5.45;;
8480;SDS011;4277;51.354;6.740;2023-06-14T00:30:38;5.85;;;5.35;;
8480;SDS011;4277;51.354;6.740;2023-06-14T00:33:04;6.00;;;5.28;;
8480;SDS011;4277;51.354;6.740;2023-06-14T00:35:30;8.10;;;5.70;;
8480;SDS011;4277;51.354;6.740;2023-06-14T00:37:55;5.93;;;5.38;;
8480;SDS011;4277;51.354;6.740;2023-06-14T00:40:21;5.90;;;5.30;;
8480;SDS011;4277;51.354;6.740;2023-06-14T00:42:47;6.97;;;5.60;;
8480;SDS011;4277;51.354;6.740;2023-06-14T00:45:12;6.38;;;5.78;;
8480;SDS011;4277;51.354;6.740;2023-06-14T00:47:38;7.35;;;5.15;;
8480;SDS011;4277;51.354;6.740;2023-06-14T00:50:07;7.25;;;5.50;;
8480;SDS011;4277;51.354;6.740;2023-06-14T00:52:33;6.88;;;5.47;;
8480;SDS011;4277;51.354;6.740;2023-06-14T00:54:59;8.13;;;5.20;;
8480;SDS011;4277;51.354;6.740;2023-06-14T00:57:25;7.22;;;5.38;;
8480;SDS011;4277;51.354;6.740;2023-06-14T00:59:52;5.97;;;5.28;;
8480;SDS011;4277;51.354;6.740;2023-06-14T01:02:18;5.55;;;5.05;;
8480;SDS011;4277;51.354;6.740;2023-06-14T01:04:47;6.50;;;5.15;;
8480;SDS011;4277;51.354;6.740;2023-06-14T01:12:28;6.03;;;5.20;;
8480;SDS011;4277;51.354;6.740;2023-06-14T01:14:56;7.18;;;5.90;;
8480;SDS011;4277;51.354;6.740;2023-06-14T01:17:23;6.10;;;5.50;;
8480;SDS011;4277;51.354;6.740;2023-06-14T01:19:51;8.20;;;5.65;;
8480;SDS011;4277;51.354;6.740;2023-06-14T01:22:24;6.22;;;5.55;;
8480;SDS011;4277;51.354;6.740;2023-06-14T01:24:50;6.28;;;5.38;;
8480;SDS011;4277;51.354;6.740;2023-06-14T01:27:20;6.63;;;6.03;;
8480;SDS011;4277;51.354;6.740;2023-06-14T01:29:46;6.25;;;5.45;;
8480;SDS011;4277;51.354;6.740;2023-06-14T01:32:12;6.22;;;5.63;;
8480;SDS011;4277;51.354;6.740;2023-06-14T01:34:38;8.38;;;5.68;;
8480;SDS011;4277;51.354;6.740;2023-06-14T01:37:04;8.55;;;5.20;;
8480;SDS011;4277;51.354;6.740;2023-06-14T01:39:31;7.00;;;5.40;;
8480;SDS011;4277;51.354;6.740;2023-06-14T01:41:57;6.00;;;5.40;;
8480;SDS011;4277;51.354;6.740;2023-06-14T01:44:24;6.30;;;5.70;;
8480;SDS011;4277;51.354;6.740;2023-06-14T01:46:50;7.45;;;5.60;;
8480;SDS011;4277;51.354;6.740;2023-06-14T01:49:16;6.18;;;5.57;;
8480;SDS011;4277;51.354;6.740;2023-06-14T01:51:42;5.97;;;5.47;;
8480;SDS011;4277;51.354;6.740;2023-06-14T01:54:08;5.90;;;5.40;;
8480;SDS011;4277;51.354;6.740;2023-06-14T01:56:34;5.80;;;5.20;;
8480;SDS011;4277;51.354;6.740;2023-06-14T01:59:00;7.05;;;5.68;;
8480;SDS011;4277;51.354;6.740;2023-06-14T02:01:26;5.90;;;5.40;;
8480;SDS011;4277;51.354;6.740;2023-06-14T02:03:53;6.60;;;5.82;;
8480;SDS011;4277;51.354;6.740;2023-06-14T02:06:19;6.38;;;5.60;;
8480;SDS011;4277;51.354;6.740;2023-06-14T02:08:45;5.55;;;5.05;;
8480;SDS011;4277;51.354;6.740;2023-06-14T02:11:11;5.60;;;5.10;;
8480;SDS011;4277;51.354;6.740;2023-06-14T02:13:36;5.70;;;5.20;;
8480;SDS011;4277;51.354;6.740;2023-06-14T02:16:02;6.32;;;5.20;;
8480;SDS011;4277;51.354;6.740;2023-06-14T02:18:29;6.30;;;5.43;;
8480;SDS011;4277;51.354;6.740;2023-06-14T02:20:55;6.43;;;5.07;;
8480;SDS011;4277;51.354;6.740;2023-06-14T02:23:21;5.68;;;5.00;;
8480;SDS011;4277;51.354;6.740;2023-06-14T02:25:47;6.57;;;5.53;;
8480;SDS011;4277;51.354;6.740;2023-06-14T02:28:13;5.53;;;5.03;;
8480;SDS011;4277;51.354;6.740;2023-06-14T02:30:39;7.35;;;5.30;;
8480;SDS011;4277;51.354;6.740;2023-06-14T02:33:05;6.47;;;5.22;;
8480;SDS011;4277;51.354;6.740;2023-06-14T02:35:31;7.07;;;5.40;;
8480;SDS011;4277;51.354;6.740;2023-06-14T02:37:57;8.20;;;5.53;;
8480;SDS011;4277;51.354;6.740;2023-06-14T02:40:23;6.60;;;5.10;;
8480;SDS011;4277;51.354;6.740;2023-06-14T02:42:49;5.20;;;4.68;;
8480;SDS011;4277;51.354;6.740;2023-06-14T02:45:15;8.52;;;5.13;;
8480;SDS011;4277;51.354;6.740;2023-06-14T02:47:41;6.50;;;5.22;;
8480;SDS011;4277;51.354;6.740;2023-06-14T02:50:07;5.13;;;4.65;;
8480;SDS011;4277;51.354;6.740;2023-06-14T02:52:34;6.85;;;5.10;;
8480;SDS011;4277;51.354;6.740;2023-06-14T02:55:00;5.60;;;5.10;;
8480;SDS011;4277;51.354;6.740;2023-06-14T02:57:26;5.93;;;5.07;;
8480;SDS011;4277;51.354;6.740;2023-06-14T02:59:52;6.85;;;5.20;;
8480;SDS011;4277;51.354;6.740;2023-06-14T03:02:18;7.63;;;5.05;;
8480;SDS011;4277;51.354;6.740;2023-06-14T03:04:44;7.25;;;5.00;;
8480;SDS011;4277;51.354;6.740;2023-06-14T03:07:11;6.63;;;4.90;;
8480;SDS011;4277;51.354;6.740;2023-06-14T03:09:38;6.75;;;5.13;;
8480;SDS011;4277;51.354;6.740;2023-06-14T03:12:05;7.05;;;4.72;;
8480;SDS011;4277;51.354;6.740;2023-06-14T03:14:32;5.47;;;4.60;;
8480;SDS011;4277;51.354;6.740;2023-06-14T03:16:58;6.63;;;4.78;;
8480;SDS011;4277;51.354;6.740;2023-06-14T03:19:25;8.60;;;4.73;;
8480;SDS011;4277;51.354;6.740;2023-06-14T03:21:51;6.20;;;4.75;;
8480;SDS011;4277;51.354;6.740;2023-06-14T03:24:18;6.68;;;4.60;;
8480;SDS011;4277;51.354;6.740;2023-06-14T03:26:44;9.30;;;5.00;;
8480;SDS011;4277;51.354;6.740;2023-06-14T03:29:11;5.50;;;4.70;;
8480;SDS011;4277;51.354;6.740;2023-06-14T03:31:40;7.57;;;4.53;;
8480;SDS011;4277;51.354;6.740;2023-06-14T03:34:07;6.40;;;4.63;;
8480;SDS011;4277;51.354;6.740;2023-06-14T03:36:33;5.10;;;4.40;;
8480;SDS011;4277;51.354;6.740;2023-06-14T03:38:58;7.70;;;4.40;;
8480;SDS011;4277;51.354;6.740;2023-06-14T03:41:24;4.80;;;4.40;;
8480;SDS011;4277;51.354;6.740;2023-06-14T03:43:51;8.33;;;4.73;;
8480;SDS011;4277;51.354;6.740;2023-06-14T03:46:17;6.00;;;4.53;;
8480;SDS011;4277;51.354;6.740;2023-06-14T03:48:43;5.30;;;4.50;;
8480;SDS011;4277;51.354;6.740;2023-06-14T03:51:09;9.65;;;4.65;;
8480;SDS011;4277;51.354;6.740;2023-06-14T03:53:35;8.33;;;4.60;;
8480;SDS011;4277;51.354;6.740;2023-06-14T03:56:01;5.80;;;4.60;;
8480;SDS011;4277;51.354;6.740;2023-06-14T03:58:27;10.30;;;4.60;;
8480;SDS011;4277;51.354;6.740;2023-06-14T04:00:53;5.55;;;4.47;;
8480;SDS011;4277;51.354;6.740;2023-06-14T04:03:19;5.87;;;4.93;;
8480;SDS011;4277;51.354;6.740;2023-06-14T04:05:48;6.65;;;4.40;;
8480;SDS011;4277;51.354;6.740;2023-06-14T04:08:14;7.17;;;5.10;;
8480;SDS011;4277;51.354;6.740;2023-06-14T04:10:41;5.45;;;4.40;;
8480;SDS011;4277;51.354;6.740;2023-06-14T04:13:07;7.40;;;4.60;;
8480;SDS011;4277;51.354;6.740;2023-06-14T04:15:33;6.30;;;4.27;;
8480;SDS011;4277;51.354;6.740;2023-06-14T04:18:00;6.60;;;4.47;;
8480;SDS011;4277;51.354;6.740;2023-06-14T04:20:27;6.30;;;4.63;;
8480;SDS011;4277;51.354;6.740;2023-06-14T04:22:56;4.93;;;4.30;;
8480;SDS011;4277;51.354;6.740;2023-06-14T04:25:22;5.75;;;4.40;;
8480;SDS011;4277;51.354;6.740;2023-06-14T04:27:50;6.47;;;4.20;;
8480;SDS011;4277;51.354;6.740;2023-06-14T04:30:17;6.13;;;4.63;;
8480;SDS011;4277;51.354;6.740;2023-06-14T04:32:43;6.03;;;4.80;;
8480;SDS011;4277;51.354;6.740;2023-06-14T04:35:10;5.93;;;4.10;;
8480;SDS011;4277;51.354;6.740;2023-06-14T04:37:36;5.67;;;4.43;;
8480;SDS011;4277;51.354;6.740;2023-06-14T04:40:05;5.13;;;4.30;;
8480;SDS011;4277;51.354;6.740;2023-06-14T04:42:31;4.82;;;4.15;;
8480;SDS011;4277;51.354;6.740;2023-06-14T04:44:57;5.53;;;4.43;;
8480;SDS011;4277;51.354;6.740;2023-06-14T04:47:23;6.93;;;4.28;;
8480;SDS011;4277;51.354;6.740;2023-06-14T04:49:50;4.40;;;4.00;;
8480;SDS011;4277;51.354;6.740;2023-06-14T04:52:17;12.00;;;4.25;;
8480;SDS011;4277;51.354;6.740;2023-06-14T04:54:45;5.65;;;4.10;;
8480;SDS011;4277;51.354;6.740;2023-06-14T04:57:11;6.50;;;4.10;;
8480;SDS011;4277;51.354;6.740;2023-06-14T04:59:42;6.13;;;3.92;;
8480;SDS011;4277;51.354;6.740;2023-06-14T05:02:09;8.48;;;3.92;;
8480;SDS011;4277;51.354;6.740;2023-06-14T05:04:35;4.82;;;3.70;;
8480;SDS011;4277;51.354;6.740;2023-06-14T05:07:04;5.35;;;3.83;;
8480;SDS011;4277;51.354;6.740;2023-06-14T05:09:31;5.32;;;3.70;;
8480;SDS011;4277;51.354;6.740;2023-06-14T05:11:57;3.70;;;3.40;;
8480;SDS011;4277;51.354;6.740;2023-06-14T05:14:25;5.88;;;3.97;;
8480;SDS011;4277;51.354;6.740;2023-06-14T05:16:51;5.40;;;3.63;;
8480;SDS011;4277;51.354;6.740;2023-06-14T05:19:18;5.18;;;4.20;;
8480;SDS011;4277;51.354;6.740;2023-06-14T05:21:45;5.57;;;3.67;;
8480;SDS011;4277;51.354;6.740;2023-06-14T05:24:12;4.63;;;3.53;;
8480;SDS011;4277;51.354;6.740;2023-06-14T05:26:38;5.65;;;3.72;;
8480;SDS011;4277;51.354;6.740;2023-06-14T05:29:04;5.93;;;3.58;;
8480;SDS011;4277;51.354;6.740;2023-06-14T05:31:30;7.57;;;3.85;;
8480;SDS011;4277;51.354;6.740;2023-06-14T05:33:56;6.55;;;3.58;;
8480;SDS011;4277;51.354;6.740;2023-06-14T05:36:21;3.95;;;3.47;;
8480;SDS011;4277;51.354;6.740;2023-06-14T05:38:47;5.72;;;3.60;;
8480;SDS011;4277;51.354;6.740;2023-06-14T05:41:13;4.18;;;3.70;;
8480;SDS011;4277;51.354;6.740;2023-06-14T05:43:39;6.60;;;3.65;;
8480;SDS011;4277;51.354;6.740;2023-06-14T05:46:04;6.15;;;3.50;;
8480;SDS011;4277;51.354;6.740;2023-06-14T05:48:30;9.95;;;3.72;;
8480;SDS011;4277;51.354;6.740;2023-06-14T05:50:56;6.20;;;3.47;;
8480;SDS011;4277;51.354;6.740;2023-06-14T05:53:21;7.45;;;3.67;;
8480;SDS011;4277;51.354;6.740;2023-06-14T05:55:47;5.50;;;3.47;;
8480;SDS011;4277;51.354;6.740;2023-06-14T05:58:12;8.07;;;3.78;;
8480;SDS011;4277;51.354;6.740;2023-06-14T06:00:38;4.47;;;3.17;;
8480;SDS011;4277;51.354;6.740;2023-06-14T06:03:04;9.13;;;3.80;;
8480;SDS011;4277;51.354;6.740;2023-06-14T06:05:34;6.03;;;3.47;;
8480;SDS011;4277;51.354;6.740;2023-06-14T06:07:59;7.13;;;3.40;;
8480;SDS011;4277;51.354;6.740;2023-06-14T06:10:25;7.80;;;3.72;;
8480;SDS011;4277;51.354;6.740;2023-06-14T06:12:51;5.10;;;3.85;;
8480;SDS011;4277;51.354;6.740;2023-06-14T06:15:17;5.18;;;3.72;;
8480;SDS011;4277;51.354;6.740;2023-06-14T06:17:43;5.07;;;3.30;;
8480;SDS011;4277;51.354;6.740;2023-06-14T06:20:09;4.35;;;3.33;;
8480;SDS011;4277;51.354;6.740;2023-06-14T06:22:36;8.70;;;3.63;;
8480;SDS011;4277;51.354;6.740;2023-06-14T06:25:02;5.22;;;3.28;;
8480;SDS011;4277;51.354;6.740;2023-06-14T06:27:28;4.97;;;3.30;;
8480;SDS011;4277;51.354;6.740;2023-06-14T06:29:53;4.05;;;3.40;;
8480;SDS011;4277;51.354;6.740;2023-06-14T06:32:19;7.65;;;3.72;;
8480;SDS011;4277;51.354;6.740;2023-06-14T06:34:45;5.40;;;3.30;;
8480;SDS011;4277;51.354;6.740;2023-06-14T06:37:11;4.30;;;3.30;;
8480;SDS011;4277;51.354;6.740;2023-06-14T06:39:36;5.97;;;3.63;;
8480;SDS011;4277;51.354;6.740;2023-06-14T06:42:02;3.40;;;3.10;;
8480;SDS011;4277;51.354;6.740;2023-06-14T06:44:27;7.25;;;3.40;;
8480;SDS011;4277;51.354;6.740;2023-06-14T06:46:53;8.43;;;3.13;;
8480;SDS011;4277;51.354;6.740;2023-06-14T06:49:19;6.43;;;3.30;;
8480;SDS011;4277;51.354;6.740;2023-06-14T06:51:58;6.63;;;3.20;;
8480;SDS011;4277;51.354;6.740;2023-06-14T06:54:25;4.55;;;2.85;;
8480;SDS011;4277;51.354;6.740;2023-06-14T06:56:51;8.65;;;3.22;;
8480;SDS011;4277;51.354;6.740;2023-06-14T06:59:16;3.97;;;3.17;;
8480;SDS011;4277;51.354;6.740;2023-06-14T07:01:42;7.07;;;2.83;;
8480;SDS011;4277;51.354;6.740;2023-06-14T07:04:07;5.45;;;2.83;;
8480;SDS011;4277;51.354;6.740;2023-06-14T07:06:33;6.80;;;2.97;;
8480;SDS011;4277;51.354;6.740;2023-06-14T07:08:59;3.05;;;2.40;;
8480;SDS011;4277;51.354;6.740;2023-06-14T07:11:26;2.92;;;2.42;;
8480;SDS011;4277;51.354;6.740;2023-06-14T07:13:52;5.68;;;2.40;;
8480;SDS011;4277;51.354;6.740;2023-06-14T07:16:18;2.50;;;2.03;;
8480;SDS011;4277;51.354;6.740;2023-06-14T07:18:44;3.03;;;2.28;;
8480;SDS011;4277;51.354;6.740;2023-06-14T07:21:10;3.65;;;2.22;;
8480;SDS011;4277;51.354;6.740;2023-06-14T07:23:36;3.17;;;1.98;;
8480;SDS011;4277;51.354;6.740;2023-06-14T07:26:02;4.93;;;2.20;;
8480;SDS011;4277;51.354;6.740;2023-06-14T07:28:27;3.05;;;1.90;;
8480;SDS011;4277;51.354;6.740;2023-06-14T07:30:53;4.00;;;2.05;;
8480;SDS011;4277;51.354;6.740;2023-06-14T07:33:19;5.38;;;2.20;;
8480;SDS011;4277;51.354;6.740;2023-06-14T07:35:45;6.18;;;2.20;;
8480;SDS011;4277;51.354;6.740;2023-06-14T07:38:12;2.17;;;1.80;;
8480;SDS011;4277;51.354;6.740;2023-06-14T07:40:38;4.88;;;2.28;;
8480;SDS011;4277;51.354;6.740;2023-06-14T07:43:04;7.47;;;2.25;;
8480;SDS011;4277;51.354;6.740;2023-06-14T07:45:30;2.53;;;2.03;;
8480;SDS011;4277;51.354;6.740;2023-06-14T07:47:56;2.65;;;1.85;;
8480;SDS011;4277;51.354;6.740;2023-06-14T07:50:22;5.70;;;1.80;;
8480;SDS011;4277;51.354;6.740;2023-06-14T07:52:48;4.70;;;2.10;;
8480;SDS011;4277;51.354;6.740;2023-06-14T07:55:14;2.08;;;1.80;;
8480;SDS011;4277;51.354;6.740;2023-06-14T07:57:41;4.20;;;1.70;;
8480;SDS011;4277;51.354;6.740;2023-06-14T08:00:08;3.17;;;1.90;;
8480;SDS011;4277;51.354;6.740;2023-06-14T08:02:36;2.63;;;2.10;;
8480;SDS011;4277;51.354;6.740;2023-06-14T08:05:02;2.88;;;1.92;;
8480;SDS011;4277;51.354;6.740;2023-06-14T08:07:28;2.15;;;1.83;;
8480;SDS011;4277;51.354;6.740;2023-06-14T08:09:54;2.85;;;2.00;;
8480;SDS011;4277;51.354;6.740;2023-06-14T08:12:20;3.60;;;2.00;;
8480;SDS011;4277;51.354;6.740;2023-06-14T08:14:46;4.78;;;2.17;;
8480;SDS011;4277;51.354;6.740;2023-06-14T08:17:12;3.75;;;1.90;;
8480;SDS011;4277;51.354;6.740;2023-06-14T08:19:38;2.28;;;1.90;;
8480;SDS011;4277;51.354;6.740;2023-06-14T08:22:04;4.15;;;1.90;;
8480;SDS011;4277;51.354;6.740;2023-06-14T08:24:30;2.78;;;1.80;;
8480;SDS011;4277;51.354;6.740;2023-06-14T08:26:56;4.30;;;2.13;;
8480;SDS011;4277;51.354;6.740;2023-06-14T08:29:26;15.75;;;2.40;;
8480;SDS011;4277;51.354;6.740;2023-06-14T08:31:54;8.95;;;2.10;;
8480;SDS011;4277;51.354;6.740;2023-06-14T08:34:20;5.07;;;2.10;;
8480;SDS011;4277;51.354;6.740;2023-06-14T08:36:48;8.77;;;2.13;;
8480;SDS011;4277;51.354;6.740;2023-06-14T08:39:14;4.72;;;1.80;;
8480;SDS011;4277;51.354;6.740;2023-06-14T08:41:40;5.90;;;1.90;;
8480;SDS011;4277;51.354;6.740;2023-06-14T08:44:07;3.92;;;2.10;;
8480;SDS011;4277;51.354;6.740;2023-06-14T08:46:33;5.45;;;2.00;;
8480;SDS011;4277;51.354;6.740;2023-06-14T08:48:59;6.65;;;1.83;;
8480;SDS011;4277;51.354;6.740;2023-06-14T08:51:27;4.30;;;1.83;;
8480;SDS011;4277;51.354;6.740;2023-06-14T08:53:58;4.95;;;1.63;;
8480;SDS011;4277;51.354;6.740;2023-06-14T08:56:26;7.63;;;2.05;;
8480;SDS011;4277;51.354;6.740;2023-06-14T08:58:53;7.13;;;1.80;;
8480;SDS011;4277;51.354;6.740;2023-06-14T09:01:19;5.03;;;1.70;;
8480;SDS011;4277;51.354;6.740;2023-06-14T09:03:46;4.43;;;1.80;;
8480;SDS011;4277;51.354;6.740;2023-06-14T09:06:13;2.08;;;1.58;;
8480;SDS011;4277;51.354;6.740;2023-06-14T09:08:41;6.18;;;1.70;;
8480;SDS011;4277;51.354;6.740;2023-06-14T09:11:08;3.63;;;1.95;;
8480;SDS011;4277;51.354;6.740;2023-06-14T09:13:34;2.70;;;1.67;;
8480;SDS011;4277;51.354;6.740;2023-06-14T09:16:00;6.00;;;1.88;;
8480;SDS011;4277;51.354;6.740;2023-06-14T09:18:42;4.50;;;1.90;;
8480;SDS011;4277;51.354;6.740;2023-06-14T09:21:09;5.20;;;1.80;;
8480;SDS011;4277;51.354;6.740;2023-06-14T09:23:39;3.25;;;1.90;;
8480;SDS011;4277;51.354;6.740;2023-06-14T09:26:09;4.03;;;1.83;;
8480;SDS011;4277;51.354;6.740;2023-06-14T09:28:35;3.03;;;2.00;;
8480;SDS011;4277;51.354;6.740;2023-06-14T09:31:01;2.92;;;1.80;;
8480;SDS011;4277;51.354;6.740;2023-06-14T09:33:27;4.10;;;2.10;;
8480;SDS011;4277;51.354;6.740;2023-06-14T09:35:54;6.78;;;2.20;;
8480;SDS011;4277;51.354;6.740;2023-06-14T09:38:20;3.05;;;2.15;;
8480;SDS011;4277;51.354;6.740;2023-06-14T09:40:46;4.45;;;2.05;;
8480;SDS011;4277;51.354;6.740;2023-06-14T09:43:12;6.75;;;2.28;;
8480;SDS011;4277;51.354;6.740;2023-06-14T09:45:38;3.47;;;1.90;;
8480;SDS011;4277;51.354;6.740;2023-06-14T09:48:05;3.80;;;2.20;;
8480;SDS011;4277;51.354;6.740;2023-06-14T09:50:32;2.97;;;2.15;;
8480;SDS011;4277;51.354;6.740;2023-06-14T09:53:07;4.57;;;2.25;;
8480;SDS011;4277;51.354;6.740;2023-06-14T09:55:34;4.90;;;2.13;;
8480;SDS011;4277;51.354;6.740;2023-06-14T09:58:04;3.58;;;1.92;;
8480;SDS011;4277;51.354;6.740;2023-06-14T10:00:31;3.53;;;1.70;;
8480;SDS011;4277;51.354;6.740;2023-06-14T10:03:00;3.53;;;1.60;;
8480;SDS011;4277;51.354;6.740;2023-06-14T10:05:26;6.95;;;2.00;;
8480;SDS011;4277;51.354;6.740;2023-06-14T10:07:55;3.00;;;1.63;;
8480;SDS011;4277;51.354;6.740;2023-06-14T10:10:21;3.03;;;1.70;;
8480;SDS011;4277;51.354;6.740;2023-06-14T10:12:47;4.60;;;1.65;;
8480;SDS011;4277;51.354;6.740;2023-06-14T10:15:19;1.92;;;1.67;;
8480;SDS011;4277;51.354;6.740;2023-06-14T10:17:47;2.55;;;1.52;;
8480;SDS011;4277;51.354;6.740;2023-06-14T10:20:35;2.60;;;1.60;;
8480;SDS011;4277;51.354;6.740;2023-06-14T10:23:10;5.55;;;1.60;;
8480;SDS011;4277;51.354;6.740;2023-06-14T10:25:38;5.50;;;1.60;;
8480;SDS011;4277;51.354;6.740;2023-06-14T10:28:17;2.50;;;1.58;;
8480;SDS011;4277;51.354;6.740;2023-06-14T10:33:31;1.90;;;1.40;;
8480;SDS011;4277;51.354;6.740;2023-06-14T10:36:08;4.82;;;1.65;;
8480;SDS011;4277;51.354;6.740;2023-06-14T10:38:34;4.68;;;1.40;;
8480;SDS011;4277;51.354;6.740;2023-06-14T10:41:02;5.18;;;1.50;;
8480;SDS011;4277;51.354;6.740;2023-06-14T10:43:28;3.20;;;1.60;;
8480;SDS011;4277;51.354;6.740;2023-06-14T10:48:41;2.13;;;1.40;;
8480;SDS011;4277;51.354;6.740;2023-06-14T10:51:15;2.83;;;1.30;;
8480;SDS011;4277;51.354;6.740;2023-06-14T10:53:45;2.33;;;1.40;;
8480;SDS011;4277;51.354;6.740;2023-06-14T10:56:26;3.38;;;1.38;;
8480;SDS011;4277;51.354;6.740;2023-06-14T10:58:53;1.83;;;1.10;;
8480;SDS011;4277;51.354;6.740;2023-06-14T11:01:23;2.78;;;1.52;;
8480;SDS011;4277;51.354;6.740;2023-06-14T11:03:52;2.47;;;1.02;;
8480;SDS011;4277;51.354;6.740;2023-06-14T11:06:19;3.05;;;1.10;;
8480;SDS011;4277;51.354;6.740;2023-06-14T11:11:14;2.67;;;1.30;;
8480;SDS011;4277;51.354;6.740;2023-06-14T11:13:46;6.45;;;1.40;;
8480;SDS011;4277;51.354;6.740;2023-06-14T11:16:12;1.42;;;1.17;;
8480;SDS011;4277;51.354;6.740;2023-06-14T11:18:39;2.65;;;1.50;;
8480;SDS011;4277;51.354;6.740;2023-06-14T11:21:05;4.13;;;1.60;;
8480;SDS011;4277;51.354;6.740;2023-06-14T11:23:31;2.05;;;1.50;;
8480;SDS011;4277;51.354;6.740;2023-06-14T11:25:57;2.83;;;1.27;;
8480;SDS011;4277;51.354;6.740;2023-06-14T11:28:23;1.80;;;1.30;;
8480;SDS011;4277;51.354;6.740;2023-06-14T11:31:00;4.85;;;1.90;;
8480;SDS011;4277;51.354;6.740;2023-06-14T11:33:26;4.88;;;1.60;;
8480;SDS011;4277;51.354;6.740;2023-06-14T11:35:52;2.15;;;1.30;;
8480;SDS011;4277;51.354;6.740;2023-06-14T11:38:18;4.05;;;1.60;;
8480;SDS011;4277;51.354;6.740;2023-06-14T11:40:44;4.53;;;1.55;;
8480;SDS011;4277;51.354;6.740;2023-06-14T11:43:10;2.47;;;1.40;;
8480;SDS011;4277;51.354;6.740;2023-06-14T11:45:37;4.70;;;1.33;;
8480;SDS011;4277;51.354;6.740;2023-06-14T11:48:04;1.40;;;1.30;;
8480;SDS011;4277;51.354;6.740;2023-06-14T11:50:30;3.40;;;1.40;;
8480;SDS011;4277;51.354;6.740;2023-06-14T11:52:59;4.57;;;1.40;;
8480;SDS011;4277;51.354;6.740;2023-06-14T11:55:32;2.25;;;1.67;;
8480;SDS011;4277;51.354;6.740;2023-06-14T11:57:58;4.05;;;1.42;;
8480;SDS011;4277;51.354;6.740;2023-06-14T12:00:24;2.47;;;1.48;;
8480;SDS011;4277;51.354;6.740;2023-06-14T12:02:54;3.60;;;1.10;;
8480;SDS011;4277;51.354;6.740;2023-06-14T12:05:24;3.47;;;1.55;;
8480;SDS011;4277;51.354;6.740;2023-06-14T12:07:57;3.92;;;1.40;;
8480;SDS011;4277;51.354;6.740;2023-06-14T12:10:24;1.92;;;1.40;;
8480;SDS011;4277;51.354;6.740;2023-06-14T12:12:50;5.25;;;1.65;;
8480;SDS011;4277;51.354;6.740;2023-06-14T12:15:15;3.38;;;1.30;;
8480;SDS011;4277;51.354;6.740;2023-06-14T12:17:42;2.92;;;1.27;;
8480;SDS011;4277;51.354;6.740;2023-06-14T12:22:53;3.55;;;1.30;;
8480;SDS011;4277;51.354;6.740;2023-06-14T12:25:27;3.40;;;1.33;;
8480;SDS011;4277;51.354;6.740;2023-06-14T12:27:55;1.77;;;1.40;;
8480;SDS011;4277;51.354;6.740;2023-06-14T12:30:21;4.38;;;1.40;;
8480;SDS011;4277;51.354;6.740;2023-06-14T12:32:47;2.45;;;1.40;;
8480;SDS011;4277;51.354;6.740;2023-06-14T12:35:14;5.13;;;1.10;;
8480;SDS011;4277;51.354;6.740;2023-06-14T12:37:40;2.92;;;1.45;;
8480;SDS011;4277;51.354;6.740;2023-06-14T12:40:06;2.85;;;1.35;;
8480;SDS011;4277;51.354;6.740;2023-06-14T12:42:33;2.95;;;1.35;;
8480;SDS011;4277;51.354;6.740;2023-06-14T12:44:59;4.10;;;1.60;;
8480;SDS011;4277;51.354;6.740;2023-06-14T12:47:25;4.25;;;1.35;;
8480;SDS011;4277;51.354;6.740;2023-06-14T12:49:52;6.50;;;1.50;;
8480;SDS011;4277;51.354;6.740;2023-06-14T12:52:17;1.40;;;1.30;;
8480;SDS011;4277;51.354;6.740;2023-06-14T12:54:43;2.90;;;1.20;;
8480;SDS011;4277;51.354;6.740;2023-06-14T12:57:09;3.45;;;1.58;;
8480;SDS011;4277;51.354;6.740;2023-06-14T12:59:35;3.80;;;1.67;;
8480;SDS011;4277;51.354;6.740;2023-06-14T13:02:14;2.08;;;1.40;;
8480;SDS011;4277;51.354;6.740;2023-06-14T13:04:40;3.72;;;1.30;;
8480;SDS011;4277;51.354;6.740;2023-06-14T13:07:06;3.35;;;1.63;;
8480;SDS011;4277;51.354;6.740;2023-06-14T13:09:32;2.67;;;1.50;;
8480;SDS011;4277;51.354;6.740;2023-06-14T13:11:58;3.53;;;1.33;;
8480;SDS011;4277;51.354;6.740;2023-06-14T13:14:25;2.80;;;1.45;;
8480;SDS011;4277;51.354;6.740;2023-06-14T13:16:51;4.35;;;1.30;;
8480;SDS011;4277;51.354;6.740;2023-06-14T13:19:17;2.15;;;1.20;;
8480;SDS011;4277;51.354;6.740;2023-06-14T13:21:42;2.75;;;1.50;;
8480;SDS011;4277;51.354;6.740;2023-06-14T13:24:08;3.20;;;1.67;;
8480;SDS011;4277;51.354;6.740;2023-06-14T13:26:34;3.05;;;1.90;;
8480;SDS011;4277;51.354;6.740;2023-06-14T13:29:01;4.03;;;1.77;;
8480;SDS011;4277;51.354;6.740;2023-06-14T13:31:27;3.28;;;1.73;;
8480;SDS011;4277;51.354;6.740;2023-06-14T13:33:52;2.67;;;1.60;;
8480;SDS011;4277;51.354;6.740;2023-06-14T13:36:18;3.17;;;1.67;;
8480;SDS011;4277;51.354;6.740;2023-06-14T13:38:44;2.83;;;1.70;;
8480;SDS011;4277;51.354;6.740;2023-06-14T13:41:10;4.10;;;1.73;;
8480;SDS011;4277;51.354;6.740;2023-06-14T13:43:36;4.15;;;1.77;;
8480;SDS011;4277;51.354;6.740;2023-06-14T13:46:02;3.17;;;1.80;;
8480;SDS011;4277;51.354;6.740;2023-06-14T13:48:28;3.45;;;1.70;;
8480;SDS011;4277;51.354;6.740;2023-06-14T13:50:54;4.13;;;1.83;;
8480;SDS011;4277;51.354;6.740;2023-06-14T13:53:21;6.47;;;1.92;;
8480;SDS011;4277;51.354;6.740;2023-06-14T13:55:47;3.20;;;1.70;;
8480;SDS011;4277;51.354;6.740;2023-06-14T13:58:13;6.22;;;1.80;;
8480;SDS011;4277;51.354;6.740;2023-06-14T14:00:40;1.80;;;1.70;;
8480;SDS011;4277;51.354;6.740;2023-06-14T14:03:06;3.65;;;1.70;;
8480;SDS011;4277;51.354;6.740;2023-06-14T14:05:33;3.03;;;1.70;;
8480;SDS011;4277;51.354;6.740;2023-06-14T14:07:59;1.95;;;1.70;;
8480;SDS011;4277;51.354;6.740;2023-06-14T14:10:26;3.00;;;1.92;;
8480;SDS011;4277;51.354;6.740;2023-06-14T14:12:52;2.97;;;2.00;;
8480;SDS011;4277;51.354;6.740;2023-06-14T14:15:19;3.38;;;1.95;;
8480;SDS011;4277;51.354;6.740;2023-06-14T14:17:45;4.25;;;2.00;;
8480;SDS011;4277;51.354;6.740;2023-06-14T14:20:15;2.40;;;1.75;;
8480;SDS011;4277;51.354;6.740;2023-06-14T14:22:42;3.17;;;1.90;;
8480;SDS011;4277;51.354;6.740;2023-06-14T14:25:08;2.10;;;1.88;;
8480;SDS011;4277;51.354;6.740;2023-06-14T14:27:34;2.92;;;1.58;;
8480;SDS011;4277;51.354;6.740;2023-06-14T14:30:00;3.42;;;1.70;;
8480;SDS011;4277;51.354;6.740;2023-06-14T14:32:26;2.00;;;1.80;;
8480;SDS011;4277;51.354;6.740;2023-06-14T14:34:52;2.65;;;1.80;;
8480;SDS011;4277;51.354;6.740;2023-06-14T14:37:18;2.08;;;1.80;;
8480;SDS011;4277;51.354;6.740;2023-06-14T14:39:44;4.65;;;1.90;;
8480;SDS011;4277;51.354;6.740;2023-06-14T14:42:10;2.58;;;1.70;;
8480;SDS011;4277;51.354;6.740;2023-06-14T14:44:37;2.92;;;1.80;;
8480;SDS011;4277;51.354;6.740;2023-06-14T14:47:03;2.35;;;1.70;;
8480;SDS011;4277;51.354;6.740;2023-06-14T14:49:30;3.42;;;2.00;;
8480;SDS011;4277;51.354;6.740;2023-06-14T14:51:56;1.95;;;1.85;;
8480;SDS011;4277;51.354;6.740;2023-06-14T14:54:22;4.60;;;1.77;;
8480;SDS011;4277;51.354;6.740;2023-06-14T14:56:49;4.43;;;1.90;;
8480;SDS011;4277;51.354;6.740;2023-06-14T14:59:15;3.75;;;2.03;;
8480;SDS011;4277;51.354;6.740;2023-06-14T15:01:42;2.17;;;1.70;;
8480;SDS011;4277;51.354;6.740;2023-06-14T15:04:08;2.42;;;1.77;;
8480;SDS011;4277;51.354;6.740;2023-06-14T15:06:34;5.63;;;2.00;;
8480;SDS011;4277;51.354;6.740;2023-06-14T15:09:00;2.03;;;1.80;;
8480;SDS011;4277;51.354;6.740;2023-06-14T15:11:26;2.95;;;1.85;;
8480;SDS011;4277;51.354;6.740;2023-06-14T15:13:53;7.07;;;2.15;;
8480;SDS011;4277;51.354;6.740;2023-06-14T15:16:19;2.45;;;1.90;;
8480;SDS011;4277;51.354;6.740;2023-06-14T15:18:45;5.85;;;1.90;;
8480;SDS011;4277;51.354;6.740;2023-06-14T15:21:11;4.15;;;1.80;;
8480;SDS011;4277;51.354;6.740;2023-06-14T15:23:37;4.38;;;1.90;;
8480;SDS011;4277;51.354;6.740;2023-06-14T15:26:03;3.28;;;1.90;;
8480;SDS011;4277;51.354;6.740;2023-06-14T15:28:30;5.68;;;1.90;;